Time;durP1;ratioP1;P1;durP2;ratioP2;P2;SDS_P1;SDS_P2;PMS_P1;PMS_P2;Temp;Humidity;BMP_temperature;BMP_pressure;BME280_temperature;BME280_humidity;BME280_pressure;Samples;Min_cycle;Max_cycle;Signal;HPM_P1;HPM_P2
2022/01/06 00:01:54;;;;;;;7.50;4.60;;;;;;;8.39;64.21;99617.22;107416;1250;59794;-75
2022/01/06 00:04:23;;;;;;;10.80;6.00;;;;;;;8.63;63.77;99624.65;107212;1249;59738;-78
2022/01/06 00:06:52;;;;;;;10.90;6.50;;;;;;;8.83;63.23;99623.38;107259;1251;72502;-79
2022/01/06 00:09:21;;;;;;;9.00;4.70;;;;;;;9.06;62.24;99623.35;107292;1251;70580;-81
2022/01/06 00:11:50;;;;;;;10.20;5.90;;;;;;;9.34;60.70;99623.08;107193;1252;67926;-82
2022/01/06 00:14:35;;;;;;;10.50;6.60;;;;;;;9.49;60.49;99627.01;107316;1249;71925;-82
2022/01/06 00:17:25;;;;;;;9.80;6.00;;;;;;;9.47;61.14;99633.66;107221;1249;61252;-80
2022/01/06 00:25:29;;;;;;;8.40;5.20;;;;;;;9.53;60.35;99647.52;107139;1249;73102;-79
2022/01/06 00:27:58;;;;;;;9.50;5.20;;;;;;;9.66;59.91;99645.77;107243;1249;70278;-79
2022/01/06 00:30:28;;;;;;;10.10;5.70;;;;;;;9.78;59.60;99651.30;107169;1250;74722;-80
2022/01/06 00:32:57;;;;;;;9.50;5.40;;;;;;;9.85;59.61;99656.81;107323;1249;59588;-80
2022/01/06 00:35:26;;;;;;;10.20;5.40;;;;;;;9.79;59.44;99664.09;107400;1249;59752;-77
2022/01/06 00:37:55;;;;;;;9.50;5.80;;;;;;;9.71;59.57;99662.84;107199;1250;74531;-82
2022/01/06 00:40:23;;;;;;;9.80;6.00;;;;;;;9.61;60.14;99666.68;107244;1249;73314;-78
2022/01/06 00:42:53;;;;;;;7.50;5.00;;;;;;;9.41;60.04;99698.96;107195;1249;72162;-77
2022/01/06 00:45:24;;;;;;;10.90;5.20;;;;;;;9.18;60.00;99722.59;107291;1248;75504;-80
2022/01/06 00:47:54;;;;;;;11.30;5.70;;;;;;;8.91;60.68;99739.23;107406;1249;59831;-79
2022/01/06 00:50:23;;;;;;;9.80;5.80;;;;;;;8.72;61.22;99750.38;107250;1249;61062;-80
2022/01/06 00:52:52;;;;;;;9.20;5.40;;;;;;;8.62;61.77;99746.02;107281;1249;72263;-77
2022/01/06 00:55:22;;;;;;;10.70;6.70;;;;;;;8.60;61.79;99754.51;107270;1251;69912;-79
2022/01/06 00:57:55;;;;;;;10.30;6.60;;;;;;;8.50;61.96;99757.54;107283;1249;69493;-79
2022/01/06 01:00:27;;;;;;;12.70;6.80;;;;;;;8.43;63.20;99769.75;107247;1249;72253;-82
2022/01/06 01:02:57;;;;;;;10.40;7.50;;;;;;;8.30;63.95;99775.58;107156;1249;61830;-79
2022/01/06 01:05:26;;;;;;;16.50;7.70;;;;;;;8.16;66.27;99778.55;106808;1251;59200;-78
2022/01/06 01:07:55;;;;;;;14.10;8.40;;;;;;;8.05;67.56;99798.34;107197;1249;75978;-78
2022/01/06 01:10:25;;;;;;;12.10;7.20;;;;;;;7.88;68.10;99798.20;107202;1249;71054;-78
2022/01/06 01:12:54;;;;;;;12.60;8.50;;;;;;;7.80;68.83;99801.46;107221;1249;70076;-77
2022/01/06 01:15:23;;;;;;;14.40;9.20;;;;;;;7.60;69.93;99793.77;107122;1249;74635;-78
2022/01/06 01:17:53;;;;;;;13.60;8.40;;;;;;;7.42;70.72;99804.59;107217;1250;60117;-79
2022/01/06 01:20:22;;;;;;;16.20;9.30;;;;;;;7.32;71.13;99808.92;107210;1250;61332;-78
2022/01/06 01:22:51;;;;;;;17.50;10.40;;;;;;;7.15;72.15;99815.40;107003;1249;75701;-77
2022/01/06 01:25:20;;;;;;;14.00;10.10;;;;;;;7.00;73.05;99811.66;107202;1249;73678;-78
2022/01/06 01:27:49;;;;;;;15.10;10.10;;;;;;;6.88;73.58;99817.66;107254;1249;71348;-79
2022/01/06 01:30:18;;;;;;;16.20;10.20;;;;;;;6.82;73.63;99823.48;107171;1250;74740;-78
2022/01/06 01:32:51;;;;;;;17.20;10.30;;;;;;;6.70;73.96;99821.41;107313;1249;62373;-79
2022/01/06 01:35:20;;;;;;;14.60;10.80;;;;;;;6.65;73.73;99816.39;107235;1249;60883;-78
2022/01/06 01:37:49;;;;;;;14.50;9.90;;;;;;;6.56;74.68;99818.05;107080;1250;72825;-79
2022/01/06 01:40:18;;;;;;;13.60;9.10;;;;;;;6.52;74.67;99823.86;107079;1249;73207;-78
2022/01/06 01:42:47;;;;;;;17.90;9.70;;;;;;;6.43;75.02;99831.73;107003;1249;69605;-81
2022/01/06 01:45:17;;;;;;;16.10;9.40;;;;;;;6.39;74.53;99829.46;106994;1252;73006;-78
2022/01/06 01:47:47;;;;;;;13.20;8.80;;;;;;;6.33;74.78;99823.12;106892;1252;62361;-78
2022/01/06 01:50:18;;;;;;;11.70;7.90;;;;;;;6.25;75.47;99837.29;107147;1249;58776;-82
2022/01/06 01:52:57;;;;;;;14.30;8.50;;;;;;;6.22;75.68;99840.66;107238;1249;74385;-79
2022/01/06 01:55:29;;;;;;;13.70;7.90;;;;;;;6.20;75.14;99848.38;106969;1249;73363;-77
2022/01/06 01:57:59;;;;;;;10.30;6.60;;;;;;;6.16;75.90;99853.30;107020;1252;70434;-80
2022/01/06 02:00:31;;;;;;;13.20;7.90;;;;;;;6.12;76.22;99863.96;107177;1249;74923;-76
2022/01/06 02:02:59;;;;;;;13.10;8.30;;;;;;;6.04;77.75;99875.20;107210;1251;64530;-79
2022/01/06 02:05:29;;;;;;;12.30;7.20;;;;;;;6.00;77.29;99877.23;107331;1251;60328;-77
2022/01/06 02:07:59;;;;;;;12.10;7.10;;;;;;;5.99;77.05;99876.03;107073;1252;74211;-78
2022/01/06 02:10:30;;;;;;;11.80;6.70;;;;;;;5.92;77.01;99867.36;107599;1251;71205;-78
2022/01/06 02:13:01;;;;;;;13.90;8.40;;;;;;;5.87;76.62;99869.23;108294;1252;67927;-80
2022/01/06 02:15:31;;;;;;;14.90;8.00;;;;;;;5.79;76.47;99877.98;107298;1251;71167;-80
2022/01/06 02:18:00;;;;;;;12.40;8.30;;;;;;;5.68;76.65;99879.61;106978;1252;61822;-79
2022/01/06 02:20:29;;;;;;;12.70;8.60;;;;;;;5.59;77.30;99898.71;107126;1251;61152;-78
2022/01/06 02:22:58;;;;;;;12.50;8.00;;;;;;;5.48;76.82;99897.64;106930;1252;74293;-79
2022/01/06 02:25:32;;;;;;;13.60;8.20;;;;;;;5.43;76.83;99896.98;107036;1251;73856;-80
2022/01/06 02:28:02;;;;;;;12.20;7.30;;;;;;;5.36;78.06;99887.06;107030;1252;69120;-79
2022/01/06 02:30:34;;;;;;;12.40;7.90;;;;;;;5.29;78.10;99887.10;106824;1252;70477;-81
2022/01/06 02:33:06;;;;;;;11.70;6.60;;;;;;;5.27;78.28;99894.48;107029;1252;60215;-76
2022/01/06 02:35:35;;;;;;;12.80;7.50;;;;;;;5.25;78.53;99912.95;107008;1252;59433;-78
2022/01/06 02:38:04;;;;;;;14.00;8.10;;;;;;;5.24;78.49;99908.02;106902;1252;73706;-74
2022/01/06 02:40:33;;;;;;;12.70;7.60;;;;;;;5.23;78.36;99900.96;106868;1252;72255;-80
2022/01/06 02:43:05;;;;;;;11.40;7.20;;;;;;;5.22;79.05;99911.60;107074;1252;69105;-79
2022/01/06 02:45:36;;;;;;;10.20;6.80;;;;;;;5.22;78.38;99910.08;107121;1251;73408;-77
2022/01/06 02:48:11;;;;;;;14.10;7.30;;;;;;;5.20;78.82;99924.61;107109;1251;59559;-77
2022/01/06 02:50:50;;;;;;;14.00;8.50;;;;;;;5.18;78.69;99922.02;107149;1251;62712;-77
2022/01/06 02:53:20;;;;;;;10.60;6.20;;;;;;;5.07;78.19;99922.88;107069;1252;72834;-76
2022/01/06 02:55:53;;;;;;;15.30;8.50;;;;;;;5.00;79.24;99916.55;107128;1250;71491;-76
2022/01/06 02:58:42;;;;;;;14.60;8.80;;;;;;;4.84;79.46;99909.99;107120;1252;70811;-79
2022/01/06 03:01:11;;;;;;;13.00;8.30;;;;;;;4.69;79.56;99902.23;107177;1250;74199;-78
2022/01/06 03:03:40;;;;;;;12.10;8.40;;;;;;;4.59;80.05;99902.70;107102;1252;60155;-80
2022/01/06 03:06:09;;;;;;;14.40;9.10;;;;;;;4.50;80.79;99916.35;107033;1252;60846;-79
2022/01/06 03:08:38;;;;;;;12.80;7.90;;;;;;;4.42;80.42;99914.08;107241;1252;74985;-75
2022/01/06 03:11:07;;;;;;;13.20;7.30;;;;;;;4.37;81.18;99909.04;107195;1251;73745;-78
2022/01/06 03:13:36;;;;;;;15.50;9.20;;;;;;;4.32;80.91;99922.97;107253;1251;71708;-78
2022/01/06 03:16:05;;;;;;;15.70;9.20;;;;;;;4.29;81.01;99935.20;107168;1252;74379;-75
2022/01/06 03:18:35;;;;;;;15.30;9.90;;;;;;;4.27;81.97;99926.14;107172;1252;61821;-78
2022/01/06 03:21:03;;;;;;;15.80;8.80;;;;;;;4.30;82.03;99923.20;107065;1252;60719;-80
2022/01/06 03:23:33;;;;;;;12.60;8.30;;;;;;;4.33;81.52;99928.78;107199;1251;75660;-79
2022/01/06 03:26:01;;;;;;;14.40;8.20;;;;;;;4.33;80.76;99936.88;107073;1252;73991;-80
2022/01/06 03:28:31;;;;;;;18.40;10.80;;;;;;;4.29;80.01;99920.00;107220;1252;71401;-79
2022/01/06 03:31:00;;;;;;;13.70;9.20;;;;;;;4.24;79.88;99926.87;107153;1251;74447;-79
2022/01/06 03:33:29;;;;;;;14.10;8.60;;;;;;;4.17;79.83;99934.30;107353;1250;61231;-80
2022/01/06 03:35:58;;;;;;;15.80;9.10;;;;;;;4.11;80.67;99926.92;107191;1251;59782;-80
2022/01/06 03:38:27;;;;;;;14.40;9.00;;;;;;;4.06;81.97;99926.20;107207;1251;72503;-78
2022/01/06 03:40:56;;;;;;;14.60;9.40;;;;;;;4.00;81.11;99924.44;107281;1250;70006;-77
2022/01/06 03:43:25;;;;;;;14.90;8.80;;;;;;;3.93;82.07;99917.91;107354;1250;68039;-78
2022/01/06 03:45:54;;;;;;;15.10;9.40;;;;;;;3.89;83.92;99921.95;107204;1251;71463;-78
2022/01/06 03:48:24;;;;;;;16.40;9.70;;;;;;;3.86;84.02;99930.10;107206;1251;61446;-79
2022/01/06 03:50:53;;;;;;;15.00;9.50;;;;;;;3.83;83.36;99941.30;107180;1251;62767;-78
2022/01/06 03:53:22;;;;;;;14.70;8.90;;;;;;;3.81;82.54;99944.98;107004;1252;75978;-78
2022/01/06 03:55:50;;;;;;;15.60;9.50;;;;;;;3.76;82.69;99947.52;107262;1252;71066;-80
2022/01/06 03:58:19;;;;;;;17.50;10.70;;;;;;;3.69;81.81;99944.48;107131;1252;67921;-78
2022/01/06 04:00:48;;;;;;;13.90;9.10;;;;;;;3.62;81.66;99957.06;107109;1252;72347;-79
2022/01/06 04:03:17;;;;;;;13.40;8.50;;;;;;;3.55;80.87;99979.84;107137;1252;63009;-78
2022/01/06 04:05:46;;;;;;;13.20;8.20;;;;;;;3.51;80.66;99986.83;107143;1251;62227;-77
2022/01/06 04:08:15;;;;;;;11.60;7.90;;;;;;;3.38;80.45;99988.52;107154;1252;75388;-82
2022/01/06 04:10:44;;;;;;;13.60;9.00;;;;;;;3.26;80.74;99991.75;107224;1251;72832;-79
2022/01/06 04:13:13;;;;;;;14.00;7.80;;;;;;;3.17;81.09;99997.58;107186;1251;69331;-80
2022/01/06 04:15:44;;;;;;;15.30;8.70;;;;;;;3.10;80.73;99988.66;107004;1252;74431;-79
2022/01/06 04:18:13;;;;;;;12.40;8.40;;;;;;;2.96;81.33;99975.13;107032;1252;60021;-80
2022/01/06 04:20:42;;;;;;;13.50;8.10;;;;;;;2.85;81.81;99975.69;107044;1252;62431;-79
2022/01/06 04:23:11;;;;;;;15.10;8.80;;;;;;;2.76;82.06;99978.73;107270;1251;72098;-78
2022/01/06 04:25:40;;;;;;;17.70;9.20;;;;;;;2.69;82.70;99982.37;107070;1251;71046;-79
2022/01/06 04:28:10;;;;;;;15.60;9.80;;;;;;;2.68;83.26;99983.45;107169;1251;69841;-76
2022/01/06 04:30:38;;;;;;;15.70;9.20;;;;;;;2.67;82.18;99988.83;107147;1251;72229;-79
2022/01/06 04:33:08;;;;;;;16.50;10.10;;;;;;;2.64;81.56;99990.50;107146;1252;61285;-77
2022/01/06 04:35:37;;;;;;;13.00;8.20;;;;;;;2.58;80.85;100002.88;107175;1252;61081;-77
2022/01/06 04:38:06;;;;;;;12.90;8.00;;;;;;;2.46;80.80;100002.27;107157;1250;75363;-80
2022/01/06 04:40:35;;;;;;;14.90;9.30;;;;;;;2.33;81.83;100007.88;107273;1249;73610;-78
2022/01/06 04:43:05;;;;;;;12.50;8.20;;;;;;;2.24;83.04;100001.45;107087;1252;70416;-78
2022/01/06 04:45:34;;;;;;;13.10;8.30;;;;;;;2.19;84.04;100001.05;107383;1249;74251;-82
2022/01/06 04:48:04;;;;;;;14.30;8.60;;;;;;;2.19;84.36;100010.14;107256;1249;62725;-80
2022/01/06 04:50:34;;;;;;;14.40;9.10;;;;;;;2.20;83.29;100019.52;107007;1250;61874;-80
2022/01/06 04:53:03;;;;;;;14.00;8.50;;;;;;;2.18;81.85;100017.90;107001;1249;75909;-80
2022/01/06 04:55:34;;;;;;;13.60;7.30;;;;;;;2.12;81.42;100016.67;107320;1249;72584;-81
2022/01/06 04:58:02;;;;;;;13.90;8.50;;;;;;;2.07;81.05;100018.59;107001;1249;70941;-83
2022/01/06 05:00:31;;;;;;;13.10;7.60;;;;;;;1.99;81.27;100020.36;107196;1251;74493;-78
2022/01/06 05:03:00;;;;;;;12.20;7.50;;;;;;;1.92;82.27;100022.45;107211;1249;60845;-79
2022/01/06 05:05:30;;;;;;;17.80;9.00;;;;;;;1.86;83.48;100009.45;107318;1250;60533;-79
2022/01/06 05:07:58;;;;;;;14.60;8.70;;;;;;;1.87;84.47;100001.91;107206;1249;74885;-82
2022/01/06 05:10:28;;;;;;;13.90;8.80;;;;;;;1.89;84.85;100002.13;107238;1249;72670;-80
2022/01/06 05:12:56;;;;;;;14.30;8.40;;;;;;;1.92;84.35;99998.73;107425;1249;70927;-80
2022/01/06 05:15:26;;;;;;;19.80;9.30;;;;;;;1.95;84.33;100004.59;107413;1249;75247;-79
2022/01/06 05:17:58;;;;;;;14.90;9.20;;;;;;;2.01;83.25;100006.75;107039;1249;61133;-79
2022/01/06 05:20:28;;;;;;;14.40;8.40;;;;;;;2.02;82.14;100007.71;106881;1252;61698;-80
2022/01/06 05:22:58;;;;;;;17.40;10.20;;;;;;;2.03;83.04;100018.30;107231;1249;72413;-80
2022/01/06 05:25:28;;;;;;;18.00;9.50;;;;;;;2.05;83.59;100019.55;107041;1249;71859;-78
2022/01/06 05:27:58;;;;;;;16.30;9.00;;;;;;;2.09;82.66;100026.59;107042;1250;71947;-78
2022/01/06 05:30:27;;;;;;;16.30;9.00;;;;;;;2.15;82.29;100028.38;106889;1249;75805;-83
2022/01/06 05:32:55;;;;;;;16.00;9.50;;;;;;;2.17;82.76;100025.85;107134;1250;60208;-81
2022/01/06 05:35:24;;;;;;;16.70;10.10;;;;;;;2.20;83.81;100021.44;106959;1249;61382;-80
2022/01/06 05:37:53;;;;;;;17.50;11.20;;;;;;;2.23;83.45;100016.16;107024;1249;73660;-82
2022/01/06 05:40:22;;;;;;;15.20;9.20;;;;;;;2.22;82.95;100015.00;107128;1249;71047;-78
2022/01/06 05:42:51;;;;;;;14.90;7.90;;;;;;;2.20;82.66;100030.19;107018;1251;68711;-78
2022/01/06 05:45:21;;;;;;;17.90;10.20;;;;;;;2.18;81.90;100050.56;106975;1251;74407;-77
2022/01/06 05:47:51;;;;;;;14.80;10.00;;;;;;;2.14;82.17;100057.44;106974;1251;61828;-75
2022/01/06 05:50:20;;;;;;;17.50;10.10;;;;;;;2.12;82.35;100064.92;106863;1249;62297;-76
2022/01/06 05:52:54;;;;;;;14.00;8.50;;;;;;;2.16;83.17;100072.30;107040;1252;73679;-74
2022/01/06 05:55:23;;;;;;;14.70;8.60;;;;;;;2.22;84.14;100072.67;107111;1249;72232;-83
2022/01/06 05:57:52;;;;;;;14.30;9.00;;;;;;;2.28;84.26;100066.40;106809;1253;69550;-78
2022/01/06 06:00:21;;;;;;;14.20;9.20;;;;;;;2.32;84.22;100067.44;107071;1249;73284;-76
2022/01/06 06:02:50;;;;;;;18.50;10.60;;;;;;;2.34;83.58;100073.48;107166;1249;63012;-77
2022/01/06 06:05:20;;;;;;;17.20;11.20;;;;;;;2.39;83.04;100070.48;106878;1249;62316;-76
2022/01/06 06:07:48;;;;;;;17.90;10.50;;;;;;;2.46;82.03;100075.00;109411;1249;73719;-75
2022/01/06 06:10:17;;;;;;;15.00;9.40;;;;;;;2.48;81.25;100073.65;109423;1249;71986;-75
2022/01/06 06:12:48;;;;;;;18.30;9.20;;;;;;;2.54;82.11;100068.57;109457;1249;69674;-74
2022/01/06 06:15:17;;;;;;;15.80;9.50;;;;;;;2.53;83.07;100064.48;109288;1249;72054;-76
2022/01/06 06:17:47;;;;;;;17.10;10.10;;;;;;;2.48;83.43;100068.73;109413;1249;60752;-79
2022/01/06 06:20:16;;;;;;;17.60;8.80;;;;;;;2.48;83.46;100072.11;108618;1249;61225;-77
2022/01/06 06:22:44;;;;;;;18.20;9.50;;;;;;;2.51;83.35;100079.01;107123;1249;75293;-77
2022/01/06 06:25:13;;;;;;;17.40;10.90;;;;;;;2.43;83.91;100082.66;106987;1251;73174;-80
2022/01/06 06:27:42;;;;;;;13.10;8.00;;;;;;;2.51;83.72;100089.17;107279;1249;70628;-80
2022/01/06 06:30:12;;;;;;;19.10;11.30;;;;;;;2.66;82.79;100089.09;107049;1249;73855;-78
2022/01/06 06:32:41;;;;;;;14.80;9.70;;;;;;;2.75;82.58;100088.83;107627;1251;59821;-78
2022/01/06 06:35:11;;;;;;;18.90;9.60;;;;;;;2.84;82.43;100097.48;107212;1252;61393;-76
2022/01/06 06:37:40;;;;;;;13.20;8.60;;;;;;;2.97;82.09;100100.79;107281;1249;75349;-79
2022/01/06 06:40:12;;;;;;;14.80;8.70;;;;;;;2.94;81.88;100099.89;107054;1252;70756;-79
2022/01/06 06:42:41;;;;;;;16.00;9.10;;;;;;;2.92;82.87;100109.30;107085;1251;68754;-82
2022/01/06 06:45:10;;;;;;;19.10;11.20;;;;;;;3.01;82.71;100113.14;107228;1251;74011;-78
2022/01/06 06:47:39;;;;;;;20.90;12.00;;;;;;;3.11;82.00;100115.88;107054;1250;62541;-78
2022/01/06 06:50:09;;;;;;;18.20;11.20;;;;;;;3.22;81.80;100123.09;107228;1247;59327;-79
2022/01/06 06:52:38;;;;;;;17.90;10.90;;;;;;;3.29;81.53;100119.96;107254;1249;73599;-82
2022/01/06 06:55:08;;;;;;;19.30;11.10;;;;;;;3.36;81.52;100118.21;107077;1249;73908;-81
2022/01/06 06:57:37;;;;;;;19.20;13.70;;;;;;;3.44;81.03;100104.92;106953;1251;71749;-78
2022/01/06 07:00:09;;;;;;;21.80;11.80;;;;;;;3.53;80.72;100115.30;107108;1252;72735;-80
2022/01/06 07:02:39;;;;;;;17.50;10.60;;;;;;;3.62;80.33;100125.31;107213;1252;60054;-77
2022/01/06 07:05:09;;;;;;;15.30;8.10;;;;;;;3.71;80.10;100130.36;107168;1249;60616;-80
2022/01/06 07:07:38;;;;;;;14.40;8.80;;;;;;;3.72;79.97;100137.16;107166;1250;75662;-77
2022/01/06 07:10:08;;;;;;;16.20;9.00;;;;;;;3.69;80.16;100132.53;107216;1249;72631;-79
2022/01/06 07:12:42;;;;;;;16.20;10.30;;;;;;;3.71;80.46;100136.56;107232;1250;70915;-78
2022/01/06 07:15:15;;;;;;;17.10;10.30;;;;;;;3.72;80.63;100127.72;107227;1249;72775;-80
2022/01/06 07:17:44;;;;;;;16.60;9.90;;;;;;;3.83;80.45;100129.88;107466;1249;62158;-78
2022/01/06 07:20:13;;;;;;;13.80;8.20;;;;;;;3.95;80.11;100141.13;107249;1250;62113;-79
2022/01/06 07:22:42;;;;;;;16.70;10.90;;;;;;;4.04;79.80;100143.77;107389;1250;74511;-79
2022/01/06 07:25:11;;;;;;;24.10;11.70;;;;;;;4.08;79.44;100142.66;107167;1249;71967;-79
2022/01/06 07:27:40;;;;;;;22.90;12.60;;;;;;;3.98;80.04;100135.98;107321;1249;69975;-79
2022/01/06 07:30:10;;;;;;;19.90;11.30;;;;;;;3.99;79.89;100134.36;107175;1250;75356;-84
2022/01/06 07:32:48;;;;;;;17.20;9.90;;;;;;;4.01;79.59;100135.62;107409;1250;62639;-77
2022/01/06 07:35:21;;;;;;;9.20;4.50;;;;;;;4.02;79.32;100141.95;107749;1249;59507;-79
2022/01/06 07:37:50;;;;;;;18.30;9.00;;;;;;;3.91;79.68;100151.83;107902;1249;73607;-79
2022/01/06 07:40:20;;;;;;;14.10;8.50;;;;;;;3.81;80.28;100154.98;107521;1249;72670;-79
2022/01/06 07:42:50;;;;;;;17.60;9.00;;;;;;;3.77;80.53;100156.41;107345;1249;72374;-79
2022/01/06 07:45:19;;;;;;;13.40;8.10;;;;;;;3.76;80.53;100151.61;107261;1249;73664;-79
2022/01/06 07:47:56;;;;;;;15.00;8.80;;;;;;;3.78;80.71;100145.00;107342;1251;62137;-81
2022/01/06 07:50:30;;;;;;;14.30;8.30;;;;;;;3.82;80.53;100159.58;107376;1249;60947;-80
2022/01/06 07:53:00;;;;;;;14.00;8.70;;;;;;;3.89;80.73;100171.39;107241;1249;72462;-77
2022/01/06 07:55:29;;;;;;;24.30;11.00;;;;;;;3.89;80.24;100174.52;107335;1249;69550;-83
2022/01/06 07:57:58;;;;;;;16.40;9.30;;;;;;;3.89;80.95;100174.66;107090;1252;69748;-82
2022/01/06 08:00:28;;;;;;;14.40;9.30;;;;;;;4.00;80.75;100170.16;107280;1250;72814;-82
2022/01/06 08:02:57;;;;;;;17.30;9.70;;;;;;;4.08;80.49;100170.95;107488;1252;59793;-79
2022/01/06 08:05:27;;;;;;;18.80;11.40;;;;;;;4.12;80.46;100164.69;107405;1251;61329;-79
2022/01/06 08:07:56;;;;;;;19.40;11.90;;;;;;;4.12;80.42;100161.91;107073;1252;72207;-82
2022/01/06 08:10:25;;;;;;;21.50;12.40;;;;;;;4.09;80.62;100160.17;107227;1252;70438;-81
2022/01/06 08:12:54;;;;;;;23.90;13.20;;;;;;;4.11;80.89;100152.32;107423;1249;68789;-73
2022/01/06 08:15:23;;;;;;;20.50;13.50;;;;;;;4.10;80.97;100144.98;107279;1252;72056;-73
2022/01/06 08:17:52;;;;;;;23.10;12.10;;;;;;;4.18;80.90;100146.08;107142;1253;59880;-73
2022/01/06 08:20:21;;;;;;;20.50;11.80;;;;;;;4.34;80.19;100143.14;107235;1251;59715;-72
2022/01/06 08:22:50;;;;;;;19.40;12.10;;;;;;;4.57;79.93;100147.71;107288;1249;73159;-70
2022/01/06 08:25:19;;;;;;;20.70;12.60;;;;;;;4.68;79.37;100149.67;107101;1251;72017;-70
2022/01/06 08:27:50;;;;;;;23.00;13.00;;;;;;;4.75;78.97;100150.30;107019;1251;71130;-72
2022/01/06 08:30:19;;;;;;;25.20;14.80;;;;;;;4.73;79.27;100152.48;107097;1252;72624;-74
2022/01/06 08:32:48;;;;;;;20.60;11.30;;;;;;;4.83;79.12;100160.55;107160;1249;61765;-71
2022/01/06 08:35:17;;;;;;;18.20;11.10;;;;;;;4.89;79.02;100173.31;107050;1251;58960;-70
2022/01/06 08:37:47;;;;;;;14.70;8.60;;;;;;;4.94;79.13;100172.35;107120;1251;72836;-70
2022/01/06 08:40:16;;;;;;;11.60;7.50;;;;;;;5.11;79.03;100175.67;107168;1250;73319;-72
2022/01/06 08:42:48;;;;;;;11.40;6.50;;;;;;;5.22;78.77;100170.20;107131;1253;69372;-72
2022/01/06 08:45:17;;;;;;;12.50;6.20;;;;;;;5.40;78.21;100178.84;107039;1251;72872;-73
2022/01/06 08:47:47;;;;;;;10.90;6.60;;;;;;;5.51;77.88;100179.84;107063;1251;63585;-73
2022/01/06 08:50:16;;;;;;;11.60;6.60;;;;;;;5.56;77.51;100177.64;107006;1252;59549;-74
2022/01/06 08:52:46;;;;;;;12.30;6.70;;;;;;;5.62;77.28;100184.57;106954;1253;73754;-74
2022/01/06 08:55:16;;;;;;;10.50;6.40;;;;;;;5.64;77.22;100186.34;107041;1250;73270;-70
2022/01/06 08:57:45;;;;;;;12.80;8.00;;;;;;;5.70;77.31;100174.77;107042;1253;70057;-72
2022/01/06 09:00:16;;;;;;;12.00;7.40;;;;;;;5.63;77.39;100172.39;107151;1251;73349;-73
2022/01/06 09:02:45;;;;;;;14.70;8.50;;;;;;;5.69;77.21;100176.91;107003;1251;59795;-69
2022/01/06 09:05:16;;;;;;;14.00;8.00;;;;;;;5.75;77.04;100169.29;106885;1253;61194;-72
2022/01/06 09:07:45;;;;;;;11.90;8.80;;;;;;;5.82;77.12;100174.36;107093;1250;75388;-69
2022/01/06 09:10:14;;;;;;;13.80;9.30;;;;;;;5.79;77.62;100179.38;107119;1249;73923;-69
2022/01/06 09:12:43;;;;;;;14.70;9.40;;;;;;;5.83;76.58;100182.38;106738;1251;71039;-72
2022/01/06 09:15:12;;;;;;;18.40;10.60;;;;;;;5.74;76.75;100187.78;107161;1250;72405;-70
2022/01/06 09:17:41;;;;;;;15.50;10.60;;;;;;;5.76;76.39;100181.32;106963;1253;60799;-71
2022/01/06 09:20:11;;;;;;;17.80;10.50;;;;;;;5.67;76.51;100178.71;107074;1251;59130;-72
2022/01/06 09:22:42;;;;;;;18.60;12.00;;;;;;;5.54;76.70;100182.95;107241;1249;75415;-70
2022/01/06 09:25:14;;;;;;;15.50;10.40;;;;;;;5.49;76.59;100171.20;107102;1251;70916;-68
2022/01/06 09:27:43;;;;;;;14.50;10.90;;;;;;;5.33;76.51;100154.17;106998;1252;69756;-71
2022/01/06 09:30:12;;;;;;;15.90;10.90;;;;;;;5.43;76.67;100159.27;107083;1252;71861;-70
2022/01/06 09:32:41;;;;;;;16.50;10.40;;;;;;;5.49;76.37;100173.08;107105;1252;59606;-71
2022/01/06 09:35:11;;;;;;;17.00;11.70;;;;;;;5.46;75.47;100170.15;107100;1249;61385;-74
2022/01/06 09:37:40;;;;;;;16.10;11.80;;;;;;;5.29;75.90;100174.45;107127;1251;73443;-72
2022/01/06 09:40:10;;;;;;;15.30;10.30;;;;;;;5.27;76.24;100183.40;107273;1251;72964;-76
2022/01/06 09:42:42;;;;;;;15.50;10.40;;;;;;;5.23;75.97;100193.59;107186;1253;69617;-71
2022/01/06 09:45:12;;;;;;;16.30;10.10;;;;;;;5.21;75.90;100211.13;107151;1252;72615;-72
2022/01/06 09:47:41;;;;;;;13.00;8.50;;;;;;;5.19;75.76;100204.70;107102;1250;60758;-73
2022/01/06 09:50:13;;;;;;;13.00;7.90;;;;;;;5.19;75.09;100190.58;107264;1251;61275;-74
2022/01/06 09:52:42;;;;;;;12.40;8.50;;;;;;;5.18;75.20;100193.20;107273;1250;72653;-72
2022/01/06 09:55:11;;;;;;;10.10;7.60;;;;;;;5.28;74.99;100176.73;107193;1251;73013;-73
2022/01/06 09:57:59;;;;;;;11.70;8.30;;;;;;;5.24;74.35;100168.72;107142;1253;67946;-75
2022/01/06 10:00:30;;;;;;;8.60;4.90;;;;;;;5.27;74.20;100193.02;107237;1253;74422;-73
2022/01/06 10:03:05;;;;;;;12.70;8.00;;;;;;;5.26;73.93;100201.06;107253;1251;60984;-72
2022/01/06 10:05:44;;;;;;;13.50;8.50;;;;;;;5.23;73.91;100200.53;107197;1251;60437;-71
2022/01/06 10:08:25;;;;;;;10.80;6.70;;;;;;;5.19;73.52;100199.70;107043;1252;72472;-74
2022/01/06 10:11:10;;;;;;;11.60;7.10;;;;;;;5.04;74.20;100201.60;107217;1252;70372;-72
2022/01/06 10:13:52;;;;;;;12.30;7.60;;;;;;;5.01;74.04;100216.83;107211;1251;67781;-74
2022/01/06 10:16:22;;;;;;;11.90;7.70;;;;;;;4.94;74.34;100213.91;107197;1251;73987;-70
2022/01/06 10:19:03;;;;;;;12.80;7.90;;;;;;;4.80;74.47;100203.98;107227;1252;61775;-73
2022/01/06 10:21:37;;;;;;;12.00;7.00;;;;;;;4.86;74.57;100196.43;107117;1251;61274;-72
2022/01/06 10:24:24;;;;;;;13.70;8.40;;;;;;;4.86;74.03;100193.33;107141;1249;72433;-74
2022/01/06 10:27:09;;;;;;;12.20;7.00;;;;;;;4.81;73.99;100192.56;107248;1251;71569;-74
2022/01/06 10:29:42;;;;;;;12.80;7.30;;;;;;;4.85;74.28;100196.98;106977;1251;69668;-74
2022/01/06 10:32:18;;;;;;;10.60;7.20;;;;;;;4.79;74.30;100193.89;107222;1249;73015;-71
2022/01/06 10:34:50;;;;;;;12.40;6.90;;;;;;;4.77;74.26;100193.13;107224;1253;61268;-72
2022/01/06 10:37:34;;;;;;;13.00;7.10;;;;;;;4.74;73.94;100185.57;107270;1250;59805;-76
2022/01/06 10:40:19;;;;;;;11.10;7.00;;;;;;;4.74;74.46;100201.09;107174;1250;71723;-72
2022/01/06 10:43:06;;;;;;;11.10;5.90;;;;;;;4.80;74.06;100209.90;107066;1251;72344;-69
2022/01/06 10:45:36;;;;;;;10.00;6.50;;;;;;;4.68;73.66;100215.02;107207;1251;69100;-72
2022/01/06 10:48:06;;;;;;;11.20;6.50;;;;;;;4.61;73.98;100222.14;107150;1251;73928;-74
2022/01/06 10:51:00;;;;;;;11.90;7.00;;;;;;;4.58;73.70;100220.45;107120;1251;60968;-72
2022/01/06 10:53:29;;;;;;;12.10;7.10;;;;;;;4.46;74.61;100216.91;107170;1252;60554;-72
2022/01/06 10:55:58;;;;;;;10.70;6.50;;;;;;;4.47;74.70;100227.04;107317;1250;73105;-73
2022/01/06 10:58:28;;;;;;;13.10;7.90;;;;;;;4.47;74.37;100233.11;107297;1251;72179;-73
2022/01/06 11:01:02;;;;;;;12.10;7.60;;;;;;;4.44;74.35;100231.56;107116;1251;69762;-71
2022/01/06 11:03:36;;;;;;;12.80;7.60;;;;;;;4.37;74.29;100228.65;107255;1251;73695;-72
2022/01/06 11:06:06;;;;;;;12.10;7.20;;;;;;;4.34;74.73;100232.80;107198;1253;63082;-74
2022/01/06 11:08:39;;;;;;;11.30;7.00;;;;;;;4.32;74.22;100240.80;107378;1250;61084;-73
2022/01/06 11:13:49;;;;;;;13.20;6.30;;;;;;;4.00;75.51;100247.48;107214;1252;71230;-69
2022/01/06 11:16:20;;;;;;;12.30;7.00;;;;;;;3.98;75.10;100250.35;107141;1251;69602;-70
2022/01/06 11:18:57;;;;;;;12.00;6.40;;;;;;;3.94;75.36;100246.64;107134;1250;72703;-72
2022/01/06 11:21:34;;;;;;;9.90;6.80;;;;;;;3.90;75.14;100255.80;107113;1253;62004;-72
2022/01/06 11:24:17;;;;;;;13.20;7.60;;;;;;;3.83;75.41;100264.41;107204;1249;61359;-73
2022/01/06 11:27:10;;;;;;;12.60;7.30;;;;;;;3.78;75.36;100264.52;107185;1249;75361;-73
2022/01/06 11:29:42;;;;;;;13.50;6.60;;;;;;;3.69;75.18;100281.15;107237;1250;71701;-71
2022/01/06 11:32:23;;;;;;;10.60;6.00;;;;;;;3.66;75.18;100280.27;106988;1251;70573;-72
2022/01/06 11:35:15;;;;;;;12.70;7.20;;;;;;;3.60;75.31;100273.16;107161;1249;72382;-73
2022/01/06 11:37:52;;;;;;;14.90;7.10;;;;;;;3.44;75.82;100268.45;107151;1250;60847;-70
2022/01/06 11:40:35;;;;;;;9.40;6.10;;;;;;;3.45;75.92;100280.46;107158;1250;60403;-73
2022/01/06 11:43:08;;;;;;;8.70;5.20;;;;;;;3.48;75.71;100272.26;106977;1251;72507;-71
2022/01/06 11:45:37;;;;;;;12.60;7.60;;;;;;;3.31;76.67;100265.51;107108;1251;71637;-72